Time;durP1;ratioP1;P1;durP2;ratioP2;P2;SDS_P1;SDS_P2;PMS_P1;PMS_P2;Temp;Humidity;BMP_temperature;BMP_pressure;BME280_temperature;BME280_humidity;BME280_pressure;Samples;Min_cycle;Max_cycle;Signal;HPM_P1;HPM_P2
2023/03/03 00:02:20;;;;;;;16.87;7.50;;;;;;;2.62;74.38;100489.27;1734722;83;21030;-64
2023/03/03 00:04:51;;;;;;;17.00;7.42;;;;;;;2.63;74.36;100486.91;1736856;82;21454;-64
2023/03/03 00:07:22;;;;;;;17.95;8.60;;;;;;;2.66;74.38;100478.51;1734728;83;21461;-64
2023/03/03 00:09:51;;;;;;;15.98;8.55;;;;;;;2.68;74.28;100476.52;1734916;82;21086;-64
2023/03/03 00:12:25;;;;;;;21.90;9.90;;;;;;;2.71;74.23;100476.22;1737250;82;21082;-65
2023/03/03 00:14:54;;;;;;;20.02;9.30;;;;;;;2.71;74.19;100473.52;1708662;83;21010;-65
2023/03/03 00:17:28;;;;;;;19.90;9.55;;;;;;;2.71;74.19;100472.66;1675863;85;21473;-64
2023/03/03 00:19:58;;;;;;;17.95;8.83;;;;;;;2.71;74.15;100468.11;1675936;84;21111;-65
2023/03/03 00:22:32;;;;;;;23.42;11.40;;;;;;;2.72;74.14;100463.55;1676109;84;21118;-65
2023/03/03 00:25:22;;;;;;;16.80;8.83;;;;;;;2.73;74.07;100460.70;1622044;87;21302;-64
2023/03/03 00:27:51;;;;;;;17.80;9.03;;;;;;;2.70;74.06;100455.58;1673949;85;21094;-65
2023/03/03 00:30:26;;;;;;;19.45;8.98;;;;;;;2.69;74.08;100451.17;1673741;84;21465;-65
2023/03/03 00:32:55;;;;;;;15.45;8.60;;;;;;;2.68;74.09;100448.11;1673996;85;21074;-66
2023/03/03 00:35:37;;;;;;;14.25;8.03;;;;;;;2.64;74.11;100442.64;1699539;83;21066;-65
2023/03/03 00:38:17;;;;;;;16.35;8.88;;;;;;;2.63;74.17;100446.34;1734636;82;21081;-64
2023/03/03 00:40:46;;;;;;;16.12;8.60;;;;;;;2.61;74.24;100446.13;1734705;82;21034;-64
2023/03/03 00:43:24;;;;;;;17.40;8.30;;;;;;;2.55;74.37;100448.39;1737093;82;21029;-64
2023/03/03 00:45:55;;;;;;;18.37;7.80;;;;;;;2.51;74.46;100436.66;1734850;83;21030;-64
2023/03/03 00:48:28;;;;;;;15.53;8.30;;;;;;;2.49;74.58;100435.95;1737187;82;21077;-64
2023/03/03 00:50:59;;;;;;;19.52;9.20;;;;;;;2.48;74.67;100439.15;1734731;82;21034;-65
2023/03/03 00:53:29;;;;;;;16.93;9.13;;;;;;;2.49;74.68;100433.24;1734833;82;21054;-66
2023/03/03 00:55:58;;;;;;;15.83;8.80;;;;;;;2.49;74.69;100429.19;1736971;81;21081;-65
2023/03/03 00:58:29;;;;;;;14.78;7.87;;;;;;;2.50;74.70;100425.48;1734555;82;21427;-65
2023/03/03 01:00:59;;;;;;;12.90;7.03;;;;;;;2.51;74.67;100423.98;1734738;83;21508;-64
2023/03/03 01:03:30;;;;;;;14.93;7.40;;;;;;;2.53;74.56;100419.28;1735993;81;21074;-64
2023/03/03 01:06:00;;;;;;;15.08;7.95;;;;;;;2.52;74.49;100414.88;1734718;83;21185;-65
2023/03/03 01:08:29;;;;;;;13.78;7.53;;;;;;;2.53;74.44;100420.63;1737346;81;21066;-64
2023/03/03 01:11:07;;;;;;;16.25;8.25;;;;;;;2.52;74.51;100414.88;1704710;83;21074;-66
2023/03/03 01:13:39;;;;;;;17.35;7.70;;;;;;;2.53;74.51;100410.31;1704711;84;21453;-64
2023/03/03 01:16:08;;;;;;;16.73;7.80;;;;;;;2.55;74.51;100412.38;1707196;83;21119;-63
2023/03/03 01:18:43;;;;;;;17.52;8.28;;;;;;;2.55;74.45;100406.47;1704833;84;21498;-65
2023/03/03 01:21:12;;;;;;;13.75;7.40;;;;;;;2.53;74.39;100404.91;1705533;83;21078;-64
2023/03/03 01:23:43;;;;;;;16.25;7.60;;;;;;;2.51;74.38;100401.00;1705133;84;21061;-65
2023/03/03 01:26:13;;;;;;;15.18;7.83;;;;;;;2.50;74.43;100395.23;1705380;84;21045;-64
2023/03/03 01:28:41;;;;;;;15.25;8.00;;;;;;;2.45;74.46;100393.97;1714270;83;21089;-65
2023/03/03 01:31:11;;;;;;;15.58;8.03;;;;;;;2.46;74.54;100398.38;1735586;82;21078;-64
2023/03/03 01:33:40;;;;;;;15.03;7.12;;;;;;;2.46;74.59;100388.91;1735132;82;21069;-64
2023/03/03 01:36:10;;;;;;;14.85;7.28;;;;;;;2.47;74.59;100391.97;1735478;83;21053;-64
2023/03/03 01:38:40;;;;;;;15.78;7.15;;;;;;;2.47;74.63;100388.77;1735149;83;21551;-64
2023/03/03 01:41:10;;;;;;;15.65;7.80;;;;;;;2.46;74.65;100384.36;1735199;83;21457;-65
2023/03/03 01:43:46;;;;;;;13.90;7.30;;;;;;;2.46;74.64;100376.74;1735137;83;21976;-65
2023/03/03 01:46:47;;;;;;;13.62;7.65;;;;;;;2.47;74.53;100377.95;1735218;83;21066;-64
2023/03/03 01:49:22;;;;;;;16.23;7.17;;;;;;;2.45;74.46;100375.89;1735375;83;21030;-65
2023/03/03 01:51:59;;;;;;;14.07;7.42;;;;;;;2.46;74.49;100376.74;1735163;83;21097;-65
2023/03/03 01:54:37;;;;;;;15.03;7.60;;;;;;;2.47;74.57;100377.09;1713388;83;21418;-64
2023/03/03 01:57:10;;;;;;;10.60;5.03;;;;;;;2.49;74.62;100374.59;1736697;82;21109;-64
2023/03/03 01:59:43;;;;;;;13.90;6.50;;;;;;;2.49;74.51;100361.08;1735173;83;21038;-64
2023/03/03 02:02:12;;;;;;;15.08;7.53;;;;;;;2.48;74.40;100364.78;1712833;82;21054;-64
2023/03/03 02:04:43;;;;;;;13.78;7.00;;;;;;;2.49;74.46;100368.34;1735412;82;21750;-64
2023/03/03 02:07:12;;;;;;;12.18;6.55;;;;;;;2.49;74.40;100368.34;1735212;82;21085;-65
2023/03/03 02:10:13;;;;;;;13.55;6.67;;;;;;;2.47;74.37;100360.38;1735141;83;21101;-65
2023/03/03 02:12:54;;;;;;;13.18;6.70;;;;;;;2.44;74.30;100357.96;1735277;83;21041;-64
2023/03/03 02:15:37;;;;;;;12.25;6.22;;;;;;;2.41;74.31;100353.34;1735107;82;21034;-65
2023/03/03 02:18:16;;;;;;;13.90;6.55;;;;;;;2.43;74.38;100359.46;1735210;82;21526;-65
2023/03/03 02:21:13;;;;;;;19.00;9.35;;;;;;;2.44;74.42;100360.67;1735894;82;21074;-65
2023/03/03 02:23:52;;;;;;;18.92;8.88;;;;;;;2.43;74.41;100350.00;1707705;83;21089;-64
2023/03/03 02:26:26;;;;;;;19.87;9.65;;;;;;;2.43;74.51;100355.41;1734677;82;21034;-65
2023/03/03 02:28:56;;;;;;;21.73;10.20;;;;;;;2.41;74.63;100358.25;1736786;82;21118;-64
2023/03/03 02:31:28;;;;;;;18.80;8.60;;;;;;;2.38;74.71;100353.64;1734900;82;21029;-64
2023/03/03 02:33:58;;;;;;;18.02;9.00;;;;;;;2.37;74.81;100352.79;1734771;83;21006;-65
2023/03/03 02:36:34;;;;;;;20.10;9.70;;;;;;;2.35;74.73;100351.23;1737234;81;21006;-65
2023/03/03 02:39:29;;;;;;;19.65;9.55;;;;;;;2.32;74.86;100350.17;1734584;83;21042;-65
2023/03/03 02:42:15;;;;;;;15.90;8.25;;;;;;;2.32;75.01;100344.27;1736923;81;21053;-65
2023/03/03 02:44:48;;;;;;;17.07;7.75;;;;;;;2.30;75.08;100341.36;1734621;82;21026;-64
2023/03/03 02:47:17;;;;;;;16.00;6.92;;;;;;;2.30;75.21;100346.77;1736974;81;21058;-64
2023/03/03 02:49:46;;;;;;;14.93;7.15;;;;;;;2.28;75.15;100335.24;1707939;83;21034;-66
2023/03/03 02:52:17;;;;;;;15.05;6.58;;;;;;;2.26;75.13;100338.59;1737244;81;21097;-64
2023/03/03 02:54:47;;;;;;;14.15;6.55;;;;;;;2.26;75.22;100342.64;1734732;82;21006;-64
2023/03/03 02:57:16;;;;;;;14.53;7.10;;;;;;;2.22;75.26;100332.63;1734658;83;21430;-64
2023/03/03 02:59:46;;;;;;;16.10;7.83;;;;;;;2.20;75.33;100338.67;1737188;81;21062;-64
2023/03/03 03:02:18;;;;;;;18.30;8.85;;;;;;;2.19;75.51;100335.63;1734657;82;21066;-66
2023/03/03 03:04:47;;;;;;;14.70;7.10;;;;;;;2.20;75.62;100333.27;1734660;82;21054;-64
2023/03/03 03:07:19;;;;;;;14.95;7.03;;;;;;;2.21;75.68;100330.92;1737101;82;21030;-64
2023/03/03 03:09:50;;;;;;;16.23;7.00;;;;;;;2.19;75.70;100332.91;1734831;83;21070;-65
2023/03/03 03:12:20;;;;;;;14.95;7.20;;;;;;;2.19;75.81;100328.36;1708360;83;21050;-65
2023/03/03 03:14:51;;;;;;;15.23;6.80;;;;;;;2.20;75.84;100321.95;1737103;82;21022;-65
2023/03/03 03:17:20;;;;;;;15.45;6.60;;;;;;;2.21;75.93;100325.02;1734771;83;21035;-65
2023/03/03 03:19:50;;;;;;;14.20;6.85;;;;;;;2.19;75.96;100325.66;1734951;83;21218;-63
2023/03/03 03:22:19;;;;;;;13.13;6.83;;;;;;;2.21;76.00;100324.16;1734704;83;21065;-65
2023/03/03 03:24:48;;;;;;;13.50;6.50;;;;;;;2.22;76.08;100323.16;1735085;83;21034;-64
2023/03/03 03:27:18;;;;;;;13.38;7.00;;;;;;;2.25;76.10;100322.88;1737075;82;21061;-65
2023/03/03 03:29:51;;;;;;;13.35;6.45;;;;;;;2.26;76.05;100316.47;1734789;82;21516;-64
2023/03/03 03:32:21;;;;;;;12.45;6.37;;;;;;;2.26;76.07;100312.91;1734630;82;21073;-64
2023/03/03 03:34:51;;;;;;;15.13;7.15;;;;;;;2.23;76.07;100320.81;1734718;81;21485;-65
2023/03/03 03:37:22;;;;;;;13.18;7.03;;;;;;;2.23;76.20;100315.41;1734565;83;21581;-67
2023/03/03 03:39:53;;;;;;;16.15;7.17;;;;;;;2.22;76.25;100306.45;1734559;83;21418;-63
2023/03/03 03:42:21;;;;;;;14.80;6.92;;;;;;;2.23;76.37;100304.59;1737085;82;21054;-65
2023/03/03 03:44:51;;;;;;;12.82;7.08;;;;;;;2.23;76.39;100301.89;1735092;82;21166;-65
2023/03/03 03:47:22;;;;;;;13.70;7.37;;;;;;;2.24;76.36;100309.00;1734699;82;21046;-64
2023/03/03 03:49:51;;;;;;;19.35;7.05;;;;;;;2.21;76.54;100302.04;1734834;82;21062;-65
2023/03/03 03:52:21;;;;;;;11.70;6.15;;;;;;;2.25;76.60;100293.14;1737023;82;21046;-65
2023/03/03 03:54:50;;;;;;;11.80;6.08;;;;;;;2.27;76.52;100287.58;1735109;81;21094;-64
2023/03/03 03:57:20;;;;;;;11.85;6.17;;;;;;;2.26;76.51;100289.94;1737436;81;21082;-65
2023/03/03 03:59:51;;;;;;;15.58;7.28;;;;;;;2.25;76.49;100285.52;1734645;82;21484;-64
2023/03/03 04:02:20;;;;;;;14.85;7.53;;;;;;;2.26;76.46;100285.88;1737081;81;21058;-64
2023/03/03 04:04:50;;;;;;;13.08;6.30;;;;;;;2.26;76.49;100287.23;1734917;82;21077;-64
2023/03/03 04:07:20;;;;;;;12.07;6.45;;;;;;;2.26;76.48;100281.33;1737336;82;21077;-64
2023/03/03 04:09:50;;;;;;;10.88;6.25;;;;;;;2.26;76.47;100283.17;1734745;81;21078;-64
2023/03/03 04:12:19;;;;;;;13.88;6.80;;;;;;;2.25;76.49;100278.27;1734581;82;21041;-64
2023/03/03 04:14:48;;;;;;;14.30;6.80;;;;;;;2.21;76.43;100276.36;1734850;83;21030;-65
2023/03/03 04:17:20;;;;;;;13.05;6.47;;;;;;;2.21;76.48;100277.71;1735006;83;21138;-64
2023/03/03 04:19:54;;;;;;;12.58;6.40;;;;;;;2.19;76.53;100268.05;1737212;82;21110;-65
2023/03/03 04:22:24;;;;;;;14.03;7.22;;;;;;;2.19;76.63;100268.90;1734599;81;21073;-64
2023/03/03 04:24:55;;;;;;;12.75;6.33;;;;;;;2.19;76.67;100268.90;1734568;83;21033;-65
2023/03/03 04:27:26;;;;;;;13.65;6.65;;;;;;;2.21;76.69;100268.25;1737077;82;21093;-63
2023/03/03 04:29:55;;;;;;;15.18;6.78;;;;;;;2.19;76.62;100263.49;1734624;82;21102;-64
2023/03/03 04:32:24;;;;;;;15.78;7.40;;;;;;;2.18;76.70;100260.44;1710088;82;21034;-65
2023/03/03 04:34:54;;;;;;;14.93;7.30;;;;;;;2.19;76.78;100262.64;1734713;83;21065;-64
2023/03/03 04:37:25;;;;;;;15.55;7.15;;;;;;;2.19;76.88;100255.39;1732726;83;21006;-64
2023/03/03 04:39:55;;;;;;;16.67;7.78;;;;;;;2.21;76.87;100252.03;1734607;83;21038;-65
2023/03/03 04:42:26;;;;;;;14.83;6.78;;;;;;;2.23;76.81;100247.83;1710421;82;21045;-63
2023/03/03 04:44:57;;;;;;;17.07;9.05;;;;;;;2.23;76.73;100245.13;1709136;83;21052;-65
2023/03/03 04:47:27;;;;;;;25.37;14.75;;;;;;;2.26;76.75;100249.39;1737291;82;21026;-65
2023/03/03 04:49:57;;;;;;;29.05;15.55;;;;;;;2.25;76.77;100245.83;1734450;83;21022;-66
2023/03/03 04:52:28;;;;;;;19.10;9.38;;;;;;;2.26;76.79;100240.78;1736787;81;21602;-65
2023/03/03 04:54:57;;;;;;;20.23;8.73;;;;;;;2.28;76.86;100247.39;1734717;82;21035;-65
2023/03/03 04:57:26;;;;;;;22.73;9.15;;;;;;;2.28;76.89;100245.53;1734820;82;21030;-64
2023/03/03 04:59:56;;;;;;;17.75;9.23;;;;;;;2.31;76.91;100247.09;1736950;81;21518;-65
2023/03/03 05:02:29;;;;;;;19.02;8.15;;;;;;;2.34;76.91;100243.59;1734684;81;20994;-64
2023/03/03 05:04:59;;;;;;;18.17;8.98;;;;;;;2.34;76.82;100247.64;1736997;81;21042;-64
2023/03/03 05:07:30;;;;;;;15.35;8.08;;;;;;;2.33;76.84;100249.14;1734517;82;21002;-64
2023/03/03 05:09:59;;;;;;;15.55;7.55;;;;;;;2.34;76.93;100245.44;1736985;82;21483;-66
2023/03/03 05:12:29;;;;;;;16.45;8.13;;;;;;;2.35;76.99;100249.34;1734661;83;21042;-65
2023/03/03 05:15:00;;;;;;;15.55;7.85;;;;;;;2.36;76.92;100247.50;1737038;81;21101;-64
2023/03/03 05:17:29;;;;;;;17.67;8.35;;;;;;;2.34;76.93;100253.05;1734599;82;21030;-65
2023/03/03 05:20:00;;;;;;;20.17;7.83;;;;;;;2.33;76.96;100247.30;1736833;81;21014;-64
2023/03/03 05:22:29;;;;;;;15.38;8.03;;;;;;;2.34;76.97;100255.76;1734740;82;21014;-65
2023/03/03 05:24:58;;;;;;;17.40;8.10;;;;;;;2.32;76.98;100246.94;1737153;82;21037;-64
2023/03/03 05:27:28;;;;;;;23.32;8.70;;;;;;;2.33;77.04;100247.30;1734635;83;20986;-66
2023/03/03 05:29:57;;;;;;;19.23;9.05;;;;;;;2.35;77.09;100248.50;1737318;81;21010;-66
2023/03/03 05:32:27;;;;;;;15.38;7.58;;;;;;;2.35;77.17;100241.73;1734492;82;21019;-65
2023/03/03 05:34:58;;;;;;;18.50;9.20;;;;;;;2.35;77.24;100237.69;1737397;82;21065;-64
2023/03/03 05:37:27;;;;;;;18.60;8.80;;;;;;;2.36;77.26;100248.84;1734608;83;21062;-65
2023/03/03 05:39:57;;;;;;;20.90;9.15;;;;;;;2.37;77.28;100239.23;1737302;81;21046;-65
2023/03/03 05:42:26;;;;;;;20.70;8.70;;;;;;;2.40;77.36;100235.38;1734690;82;21002;-65
2023/03/03 05:44:57;;;;;;;16.65;8.65;;;;;;;2.39;77.37;100233.18;1734704;81;21443;-64
2023/03/03 05:47:25;;;;;;;17.92;9.48;;;;;;;2.44;77.43;100234.08;1737167;81;21061;-65
2023/03/03 05:49:56;;;;;;;20.60;8.53;;;;;;;2.44;77.39;100230.87;1734705;83;21483;-66
2023/03/03 05:52:25;;;;;;;18.02;9.10;;;;;;;2.45;77.46;100229.02;1710309;82;21081;-65
2023/03/03 05:54:56;;;;;;;19.20;8.75;;;;;;;2.46;77.49;100224.82;1704671;83;21504;-65
2023/03/03 05:57:25;;;;;;;19.60;8.93;;;;;;;2.51;77.54;100223.02;1707086;83;21509;-66
2023/03/03 05:59:56;;;;;;;22.95;9.50;;;;;;;2.53;77.45;100224.56;1704787;83;21108;-68
2023/03/03 06:02:24;;;;;;;21.05;9.83;;;;;;;2.56;77.46;100227.47;1707103;83;21081;-66
2023/03/03 06:04:53;;;;;;;19.90;9.30;;;;;;;2.59;77.50;100220.41;1704675;83;21013;-65
2023/03/03 06:07:22;;;;;;;19.82;9.53;;;;;;;2.64;77.46;100217.28;1707172;84;21115;-68
2023/03/03 06:09:51;;;;;;;20.95;10.20;;;;;;;2.68;77.39;100214.63;1705076;84;21125;-65
2023/03/03 06:12:22;;;;;;;24.15;10.68;;;;;;;2.72;77.41;100218.73;1704089;84;21006;-65
2023/03/03 06:14:52;;;;;;;21.25;9.75;;;;;;;2.77;77.42;100226.73;1704693;83;21017;-64
2023/03/03 06:17:20;;;;;;;23.38;10.05;;;;;;;2.80;77.32;100218.31;1707418;83;21088;-65
2023/03/03 06:19:50;;;;;;;21.80;9.55;;;;;;;2.83;77.18;100219.36;1723399;83;21096;-65
2023/03/03 06:22:20;;;;;;;22.82;9.58;;;;;;;2.84;77.05;100222.42;1731539;81;21130;-66
2023/03/03 06:24:51;;;;;;;23.77;9.73;;;;;;;2.86;77.00;100223.12;1711939;84;21156;-65
2023/03/03 06:27:21;;;;;;;21.48;9.75;;;;;;;2.89;76.97;100223.81;1711218;84;21093;-64
2023/03/03 06:29:51;;;;;;;19.75;9.05;;;;;;;2.91;76.80;100215.05;1729492;82;21331;-66
2023/03/03 06:32:19;;;;;;;25.12;10.98;;;;;;;2.95;76.81;100220.50;1729407;82;21031;-65
2023/03/03 06:34:48;;;;;;;21.48;9.98;;;;;;;2.98;76.76;100221.55;1729556;82;21081;-66
2023/03/03 06:37:18;;;;;;;24.27;9.93;;;;;;;3.02;76.62;100221.08;1729571;82;21126;-66
2023/03/03 06:39:47;;;;;;;36.53;10.68;;;;;;;3.05;76.44;100222.63;1729364;82;21050;-65
2023/03/03 06:42:16;;;;;;;21.05;9.83;;;;;;;3.06;76.27;100218.92;1729541;83;21033;-64
2023/03/03 06:44:46;;;;;;;22.25;9.40;;;;;;;3.05;76.03;100210.45;1729355;82;21548;-64
2023/03/03 06:47:16;;;;;;;22.85;10.18;;;;;;;3.01;76.00;100212.62;1729309;83;21070;-64
2023/03/03 06:49:46;;;;;;;21.17;9.15;;;;;;;3.02;75.99;100210.76;1729463;82;21451;-65
2023/03/03 06:52:25;;;;;;;20.10;8.98;;;;;;;3.01;75.92;100205.00;1729432;83;21053;-64
2023/03/03 06:54:57;;;;;;;20.20;9.98;;;;;;;3.03;75.87;100213.31;1729240;83;21046;-65
2023/03/03 06:57:29;;;;;;;18.35;8.85;;;;;;;3.06;75.89;100210.80;1729406;82;21054;-65
2023/03/03 07:00:16;;;;;;;22.35;9.60;;;;;;;3.07;75.68;100213.35;1729260;82;21046;-64
2023/03/03 07:02:48;;;;;;;21.52;9.28;;;;;;;3.08;75.60;100202.02;1728900;83;21030;-64
2023/03/03 07:05:18;;;;;;;21.85;8.98;;;;;;;3.12;75.66;100202.91;1729655;82;21051;-65
2023/03/03 07:07:47;;;;;;;24.27;9.38;;;;;;;3.18;75.52;100204.14;1729490;82;21094;-66
2023/03/03 07:10:26;;;;;;;17.90;8.63;;;;;;;3.22;75.38;100205.53;1729341;82;21059;-64
2023/03/03 07:13:05;;;;;;;17.85;8.40;;;;;;;3.27;75.20;100196.48;1729470;83;21047;-67
2023/03/03 07:15:36;;;;;;;22.85;10.10;;;;;;;3.30;74.75;100197.52;1729681;83;20999;-65
2023/03/03 07:18:18;;;;;;;36.53;18.60;;;;;;;3.29;74.61;100196.32;1705533;83;21541;-68
2023/03/03 07:20:50;;;;;;;20.75;9.18;;;;;;;3.29;74.45;100200.38;1710342;83;20995;-65
2023/03/03 07:23:30;;;;;;;23.62;8.93;;;;;;;3.27;74.41;100196.98;1702420;83;21512;-66
2023/03/03 07:26:00;;;;;;;15.35;8.00;;;;;;;3.31;74.43;100193.80;1723983;83;21478;-67
2023/03/03 07:28:31;;;;;;;17.40;7.95;;;;;;;3.34;74.17;100198.91;1724191;82;21450;-65
2023/03/03 07:31:03;;;;;;;17.73;8.35;;;;;;;3.37;73.96;100198.59;1724004;83;21049;-65
2023/03/03 07:33:41;;;;;;;18.15;7.65;;;;;;;3.41;73.80;100191.86;1724098;83;21450;-65
2023/03/03 07:36:36;;;;;;;21.35;8.15;;;;;;;3.44;73.54;100195.61;1724159;83;21054;-66
2023/03/03 07:39:38;;;;;;;20.80;8.55;;;;;;;3.47;73.42;100190.38;1702195;83;21086;-68
2023/03/03 07:42:30;;;;;;;30.17;9.58;;;;;;;3.48;73.13;100180.74;1723957;82;21038;-66
2023/03/03 07:45:22;;;;;;;15.25;7.83;;;;;;;3.53;73.12;100186.19;1723357;83;21477;-66
2023/03/03 07:47:58;;;;;;;17.75;8.38;;;;;;;3.59;72.82;100184.20;1724018;82;21003;-67
2023/03/03 07:50:27;;;;;;;14.18;7.50;;;;;;;3.60;72.55;100177.27;1716270;83;21461;-69
2023/03/03 07:52:59;;;;;;;19.60;7.92;;;;;;;3.63;72.28;100178.31;1724341;82;21082;-65
2023/03/03 07:55:36;;;;;;;15.93;7.05;;;;;;;3.68;72.07;100180.04;1723755;82;21059;-66
2023/03/03 07:58:24;;;;;;;19.92;7.85;;;;;;;3.68;71.35;100176.48;1724027;82;20999;-66
2023/03/03 08:01:31;;;;;;;27.15;9.13;;;;;;;3.66;71.29;100177.14;1723410;83;21055;-67
2023/03/03 08:03:59;;;;;;;23.87;7.78;;;;;;;3.69;71.22;100174.12;1724112;83;21066;-66
2023/03/03 08:06:42;;;;;;;22.45;8.13;;;;;;;3.73;71.40;100171.44;1724197;83;21038;-67
2023/03/03 08:09:25;;;;;;;16.80;7.75;;;;;;;3.81;71.41;100164.71;1722190;83;21590;-65
2023/03/03 08:12:03;;;;;;;18.05;7.60;;;;;;;3.86;70.83;100171.00;1724132;83;21010;-66
2023/03/03 08:14:36;;;;;;;20.97;7.65;;;;;;;3.87;70.71;100164.58;1724107;82;21027;-66
2023/03/03 08:17:21;;;;;;;15.53;8.10;;;;;;;3.92;70.51;100167.17;1724045;82;21443;-66
2023/03/03 08:19:50;;;;;;;16.02;7.58;;;;;;;3.96;70.40;100167.70;1724246;82;21066;-65
2023/03/03 08:22:31;;;;;;;17.25;7.90;;;;;;;3.99;70.02;100160.61;1727261;83;21046;-64
2023/03/03 08:25:00;;;;;;;17.80;8.15;;;;;;;4.00;69.94;100160.45;1737089;82;21454;-66
2023/03/03 08:27:29;;;;;;;20.82;7.90;;;;;;;4.06;69.73;100161.66;1734930;82;20998;-66
2023/03/03 08:29:59;;;;;;;19.57;7.60;;;;;;;4.12;69.74;100157.80;1737133;81;21026;-66
2023/03/03 08:32:29;;;;;;;12.58;6.72;;;;;;;4.19;69.41;100153.08;1734930;83;21037;-66
2023/03/03 08:34:58;;;;;;;31.87;7.80;;;;;;;4.24;68.89;100151.58;1737288;82;21348;-65
2023/03/03 08:37:28;;;;;;;14.05;6.58;;;;;;;4.23;68.60;100151.74;1734988;82;21017;-66
2023/03/03 08:39:56;;;;;;;17.12;7.05;;;;;;;4.24;68.37;100151.58;1737075;82;21074;-65
2023/03/03 08:42:25;;;;;;;17.17;7.78;;;;;;;4.24;68.10;100148.86;1734539;82;21042;-66
2023/03/03 08:44:54;;;;;;;17.48;7.72;;;;;;;4.24;67.89;100144.80;1737107;82;21077;-66
2023/03/03 08:47:23;;;;;;;14.10;7.67;;;;;;;4.26;67.56;100139.21;1734565;83;20998;-65
2023/03/03 08:49:53;;;;;;;20.15;8.33;;;;;;;4.28;67.59;100140.74;1737297;82;21029;-66
2023/03/03 08:52:22;;;;;;;19.00;8.03;;;;;;;4.33;67.63;100129.41;1734959;83;21038;-65
2023/03/03 08:54:53;;;;;;;15.32;7.35;;;;;;;4.42;67.38;100136.55;1737122;81;21547;-66
2023/03/03 08:57:23;;;;;;;18.23;7.65;;;;;;;4.46;67.06;100119.78;1759817;80;20990;-68
2023/03/03 08:59:52;;;;;;;15.63;7.22;;;;;;;4.49;66.70;100129.45;1750070;81;20994;-66
2023/03/03 09:02:21;;;;;;;16.95;7.67;;;;;;;4.51;66.60;100117.93;1736766;82;21088;-66
2023/03/03 09:04:51;;;;;;;19.42;8.10;;;;;;;4.54;66.51;100116.24;1752815;82;21040;-65
2023/03/03 09:07:20;;;;;;;16.80;7.22;;;;;;;4.59;66.29;100118.48;1755452;81;21038;-66
2023/03/03 09:09:50;;;;;;;20.37;7.60;;;;;;;4.64;65.87;100109.34;1755587;82;21058;-66
2023/03/03 09:12:31;;;;;;;21.48;7.90;;;;;;;4.66;65.77;100103.23;1752468;81;21050;-65
2023/03/03 09:15:18;;;;;;;20.62;7.80;;;;;;;4.68;65.50;100110.20;1732780;82;21038;-64
2023/03/03 09:17:47;;;;;;;17.97;8.63;;;;;;;4.71;65.99;100101.72;1755669;82;20990;-65
2023/03/03 09:20:35;;;;;;;16.00;8.33;;;;;;;4.75;65.48;100108.52;1755476;81;21373;-65
2023/03/03 09:23:38;;;;;;;19.12;8.33;;;;;;;4.78;65.08;100101.39;1754273;81;21462;-67
2023/03/03 09:26:32;;;;;;;18.05;8.18;;;;;;;4.80;64.84;100097.66;1753348;81;21003;-64
2023/03/03 09:29:18;;;;;;;13.65;7.60;;;;;;;4.83;64.62;100092.75;1747585;81;21490;-65
2023/03/03 09:32:00;;;;;;;16.77;7.25;;;;;;;4.89;64.40;100093.94;1711846;82;21045;-65
2023/03/03 09:34:41;;;;;;;14.15;7.42;;;;;;;4.91;63.62;100091.39;1711852;82;21070;-64
2023/03/03 09:37:23;;;;;;;15.83;7.33;;;;;;;4.90;63.12;100084.77;1711764;84;21073;-65
2023/03/03 09:39:56;;;;;;;16.70;7.72;;;;;;;4.91;63.15;100081.05;1722670;82;21078;-64
2023/03/03 09:42:50;;;;;;;14.90;7.05;;;;;;;4.95;62.48;100079.18;1711906;82;21442;-68
2023/03/03 09:45:34;;;;;;;15.28;8.00;;;;;;;4.94;61.79;100070.69;1691633;83;21023;-65
2023/03/03 09:48:17;;;;;;;17.25;8.00;;;;;;;5.04;62.50;100065.09;1737055;82;21037;-65
2023/03/03 09:51:19;;;;;;;17.15;6.58;;;;;;;5.09;62.22;100061.36;1728990;83;21046;-64
2023/03/03 09:54:25;;;;;;;12.88;5.83;;;;;;;5.13;60.28;100055.92;1712015;84;21018;-66
2023/03/03 09:57:28;;;;;;;14.50;6.92;;;;;;;5.16;60.20;100061.52;1681748;85;21050;-65
2023/03/03 10:00:25;;;;;;;;;;;;;;;5.17;59.83;100057.27;1739553;81;21097;-67
2023/03/03 10:03:12;;;;;;;14.87;6.80;;;;;;;5.24;59.45;100046.09;1744915;81;20150;-67
2023/03/03 10:05:58;;;;;;;13.60;6.55;;;;;;;5.23;58.85;100050.34;1741768;82;21049;-65
2023/03/03 10:09:13;;;;;;;11.85;6.22;;;;;;;5.21;58.94;100039.65;1710625;84;21486;-65
2023/03/03 10:12:09;;;;;;;19.40;7.25;;;;;;;5.25;58.88;100034.72;1708271;83;21109;-65
2023/03/03 10:15:20;;;;;;;12.13;6.50;;;;;;;5.29;58.55;100022.48;1741548;82;21072;-64
2023/03/03 10:18:00;;;;;;;12.40;6.65;;;;;;;5.35;57.97;100016.36;1731857;82;21042;-66
2023/03/03 10:20:52;;;;;;;15.72;6.65;;;;;;;5.37;57.63;100008.38;1741712;81;21584;-65
2023/03/03 10:23:33;;;;;;;15.50;6.67;;;;;;;5.40;57.53;100009.39;1709154;84;21512;-68
2023/03/03 10:26:37;;;;;;;12.53;5.97;;;;;;;5.49;56.97;100002.06;1714000;82;21402;-67
2023/03/03 10:29:16;;;;;;;13.62;6.12;;;;;;;5.54;56.26;99996.95;1737504;81;21009;-63
2023/03/03 10:32:02;;;;;;;11.50;5.97;;;;;;;5.62;55.65;100000.99;1706082;83;21083;-65
2023/03/03 10:34:57;;;;;;;12.80;6.05;;;;;;;5.65;55.89;99990.28;1741644;82;21042;-64
2023/03/03 10:37:34;;;;;;;12.33;6.35;;;;;;;5.73;55.91;99981.58;1738730;81;21048;-66
2023/03/03 10:40:14;;;;;;;20.12;6.87;;;;;;;5.84;55.76;99978.98;1708173;84;21433;-65
2023/03/03 10:43:07;;;;;;;13.05;6.70;;;;;;;5.95;55.40;99979.16;1736517;82;21133;-65
2023/03/03 10:45:44;;;;;;;13.58;6.78;;;;;;;6.02;54.76;99967.90;1709010;84;21113;-66
2023/03/03 10:48:41;;;;;;;11.18;5.87;;;;;;;6.10;54.68;99960.20;1709152;82;21039;-65
2023/03/03 10:51:21;;;;;;;15.13;6.08;;;;;;;6.11;54.09;99955.09;1705626;83;21055;-67
2023/03/03 10:54:09;;;;;;;12.23;6.03;;;;;;;6.10;53.59;99943.88;1709401;82;21087;-64
2023/03/03 10:56:46;;;;;;;12.28;6.28;;;;;;;6.04;53.46;99951.73;1709256;82;21040;-65
2023/03/03 10:59:39;;;;;;;12.88;6.20;;;;;;;6.01;53.72;99941.22;1708434;84;21051;-66
2023/03/03 11:02:21;;;;;;;11.15;6.00;;;;;;;6.04;53.76;99927.77;1708874;83;21047;-66
2023/03/03 11:05:24;;;;;;;15.05;6.22;;;;;;;6.09;53.90;99919.08;1707505;82;21087;-66
2023/03/03 11:08:08;;;;;;;13.15;5.95;;;;;;;6.17;53.90;99915.78;1646122;86;21017;-64
2023/03/03 11:11:15;;;;;;;12.53;6.12;;;;;;;6.27;53.02;99908.22;1646173;87;21132;-64
2023/03/03 11:14:12;;;;;;;15.75;6.17;;;;;;;6.29;52.68;99911.61;1646080;86;21121;-63
2023/03/03 11:17:02;;;;;;;10.80;5.35;;;;;;;6.31;52.47;99911.42;1646264;87;21343;-65
2023/03/03 11:20:03;;;;;;;9.90;5.62;;;;;;;6.28;52.50;99902.27;1646254;86;21211;-65
2023/03/03 11:22:47;;;;;;;10.15;5.08;;;;;;;6.27;52.89;99899.22;1645907;86;21119;-65
2023/03/03 11:25:29;;;;;;;9.20;4.83;;;;;;;6.31;52.83;99899.19;1659309;84;21071;-63
2023/03/03 11:28:21;;;;;;;11.20;4.62;;;;;;;6.34;52.43;99887.94;1707223;83;21455;-64
2023/03/03 11:31:07;;;;;;;11.57;4.75;;;;;;;6.32;51.69;99885.91;1707624;82;21494;-66
2023/03/03 11:34:07;;;;;;;7.90;4.37;;;;;;;6.28;52.24;99891.39;1707450;82;21076;-65
2023/03/03 11:36:57;;;;;;;9.13;3.40;;;;;;;6.27;52.36;99894.63;1707359;84;21076;-64
2023/03/03 11:39:34;;;;;;;7.65;3.70;;;;;;;6.29;51.54;99887.64;1707534;83;21115;-66
2023/03/03 11:42:21;;;;;;;;;;;;;;;6.29;51.13;99887.13;1710352;84;21068;-64
2023/03/03 11:44:58;;;;;;;10.43;3.87;;;;;;;6.32;51.24;99886.76;1707543;82;20197;-66
2023/03/03 11:47:38;;;;;;;11.97;4.45;;;;;;;6.34;51.10;99886.06;1708306;82;21035;-63
2023/03/03 11:50:24;;;;;;;12.82;5.00;;;;;;;6.36;51.26;99887.23;1708929;82;21011;-63
2023/03/03 11:53:17;;;;;;;9.45;3.80;;;;;;;6.43;51.51;99875.10;1692103;84;21087;-64
2023/03/03 11:55:51;;;;;;;10.10;3.30;;;;;;;6.46;50.30;99866.05;1709063;82;21034;-65
2023/03/03 11:58:38;;;;;;;7.65;3.30;;;;;;;6.43;49.63;99871.02;1681808;84;21067;-63
2023/03/03 12:01:24;;;;;;;7.00;3.27;;;;;;;6.41;49.89;99863.04;1680636;84;21475;-63
2023/03/03 12:04:03;;;;;;;8.18;3.75;;;;;;;6.43;50.09;99865.06;1714174;82;21543;-62
2023/03/03 12:07:14;;;;;;;9.30;3.95;;;;;;;6.43;50.07;99869.14;1737231;82;21038;-64
2023/03/03 12:10:16;;;;;;;8.00;3.92;;;;;;;6.40;50.30;99863.23;1674918;84;21106;-63